Terminal Aerodrome Forecast
Issued by NWS

Home | Current Version | Previous Version | Text Only | Print | Product List | Glossary On
Versions: 1 2 3 4 5 6 7 8 9 10 11 12 13 14 15 16 17 18 19 20 21 22 23 24 25 26 27 28 29 30
000
FTAK31 PAFA 191140
TAFAOM
TAF
PAOM 191140Z 1912/2012 08016KT 1SM -SN BLSN OVC015
     FM191800 05007KT 6SM -SN BR BKN015 OVC035
     FM192200 36010G18KT P6SM VCSH BKN035 BKN100
     FM200200 34010KT P6SM SCT050 SCT120=

USA.gov is the U.S. government's official web portal to all federal, state and local government web resources and services.